sensor_id;sensor_type;location;lat;lon;timestamp;P1;durP1;ratioP1;P2;durP2;ratioP2
59854;SDS011;45732;52.850;6.896;2022-09-09T00:09:15;11.70;;;7.38;;
59854;SDS011;45732;52.850;6.896;2022-09-09T00:11:43;12.93;;;7.60;;
59854;SDS011;45732;52.850;6.896;2022-09-09T00:14:15;9.70;;;7.30;;
59854;SDS011;45732;52.850;6.896;2022-09-09T00:16:50;9.30;;;7.18;;
59854;SDS011;45732;52.850;6.896;2022-09-09T00:21:59;10.85;;;7.53;;
59854;SDS011;45732;52.850;6.896;2022-09-09T00:24:28;15.25;;;8.43;;
59854;SDS011;45732;52.850;6.896;2022-09-09T00:27:04;13.20;;;8.90;;
59854;SDS011;45732;52.850;6.896;2022-09-09T00:29:38;14.60;;;9.30;;
59854;SDS011;45732;52.850;6.896;2022-09-09T00:32:14;12.85;;;8.38;;
59854;SDS011;45732;52.850;6.896;2022-09-09T00:34:48;18.30;;;8.38;;
59854;SDS011;45732;52.850;6.896;2022-09-09T00:37:18;13.48;;;8.50;;
59854;SDS011;45732;52.850;6.896;2022-09-09T00:39:46;11.50;;;8.52;;
59854;SDS011;45732;52.850;6.896;2022-09-09T00:42:14;13.90;;;9.10;;
59854;SDS011;45732;52.850;6.896;2022-09-09T00:44:46;13.98;;;8.13;;
59854;SDS011;45732;52.850;6.896;2022-09-09T00:50:05;13.02;;;6.82;;
59854;SDS011;45732;52.850;6.896;2022-09-09T00:58:23;10.48;;;5.85;;
59854;SDS011;45732;52.850;6.896;2022-09-09T01:03:38;8.65;;;4.97;;
59854;SDS011;45732;52.850;6.896;2022-09-09T01:06:34;12.27;;;5.45;;
59854;SDS011;45732;52.850;6.896;2022-09-09T01:11:45;13.57;;;4.82;;
59854;SDS011;45732;52.850;6.896;2022-09-09T01:17:14;10.80;;;5.20;;
59854;SDS011;45732;52.850;6.896;2022-09-09T01:27:38;9.38;;;5.28;;
59854;SDS011;45732;52.850;6.896;2022-09-09T01:30:12;8.23;;;4.70;;
59854;SDS011;45732;52.850;6.896;2022-09-09T01:38:06;10.50;;;5.25;;
59854;SDS011;45732;52.850;6.896;2022-09-09T01:40:32;9.52;;;5.13;;
59854;SDS011;45732;52.850;6.896;2022-09-09T01:42:58;10.63;;;5.05;;
59854;SDS011;45732;52.850;6.896;2022-09-09T01:45:24;9.38;;;4.78;;
59854;SDS011;45732;52.850;6.896;2022-09-09T01:47:51;8.43;;;4.38;;
59854;SDS011;45732;52.850;6.896;2022-09-09T01:50:17;10.27;;;4.93;;
59854;SDS011;45732;52.850;6.896;2022-09-09T01:52:45;8.40;;;4.97;;
59854;SDS011;45732;52.850;6.896;2022-09-09T01:55:15;10.13;;;5.30;;
59854;SDS011;45732;52.850;6.896;2022-09-09T02:00:31;10.55;;;5.60;;
59854;SDS011;45732;52.850;6.896;2022-09-09T02:08:44;10.02;;;6.30;;
59854;SDS011;45732;52.850;6.896;2022-09-09T02:11:16;10.45;;;6.18;;
59854;SDS011;45732;52.850;6.896;2022-09-09T02:13:44;10.82;;;7.05;;
59854;SDS011;45732;52.850;6.896;2022-09-09T02:21:15;11.20;;;6.40;;
59854;SDS011;45732;52.850;6.896;2022-09-09T02:23:42;13.65;;;7.22;;
59854;SDS011;45732;52.850;6.896;2022-09-09T02:26:12;11.63;;;6.45;;
59854;SDS011;45732;52.850;6.896;2022-09-09T02:28:44;11.85;;;7.50;;
59854;SDS011;45732;52.850;6.896;2022-09-09T02:31:12;11.75;;;7.85;;
59854;SDS011;45732;52.850;6.896;2022-09-09T02:33:41;11.00;;;6.88;;
59854;SDS011;45732;52.850;6.896;2022-09-09T02:36:11;12.05;;;7.10;;
59854;SDS011;45732;52.850;6.896;2022-09-09T02:38:42;12.82;;;7.28;;
59854;SDS011;45732;52.850;6.896;2022-09-09T02:41:15;11.00;;;7.15;;
59854;SDS011;45732;52.850;6.896;2022-09-09T02:44:14;11.70;;;7.33;;
59854;SDS011;45732;52.850;6.896;2022-09-09T02:46:53;11.77;;;7.47;;
59854;SDS011;45732;52.850;6.896;2022-09-09T02:55:04;13.63;;;8.05;;
59854;SDS011;45732;52.850;6.896;2022-09-09T02:57:33;11.65;;;6.90;;
59854;SDS011;45732;52.850;6.896;2022-09-09T03:00:00;10.80;;;7.65;;
59854;SDS011;45732;52.850;6.896;2022-09-09T03:02:26;15.45;;;7.63;;
59854;SDS011;45732;52.850;6.896;2022-09-09T03:04:52;13.05;;;7.03;;
59854;SDS011;45732;52.850;6.896;2022-09-09T03:07:18;11.63;;;7.57;;
59854;SDS011;45732;52.850;6.896;2022-09-09T03:09:44;12.40;;;7.72;;
59854;SDS011;45732;52.850;6.896;2022-09-09T03:12:10;11.02;;;7.30;;
59854;SDS011;45732;52.850;6.896;2022-09-09T03:14:47;10.75;;;7.05;;
59854;SDS011;45732;52.850;6.896;2022-09-09T03:17:13;11.48;;;7.00;;
59854;SDS011;45732;52.850;6.896;2022-09-09T03:19:38;11.85;;;6.47;;
59854;SDS011;45732;52.850;6.896;2022-09-09T03:22:04;9.60;;;6.13;;
59854;SDS011;45732;52.850;6.896;2022-09-09T03:24:30;10.57;;;6.22;;
59854;SDS011;45732;52.850;6.896;2022-09-09T03:26:56;10.80;;;5.72;;
59854;SDS011;45732;52.850;6.896;2022-09-09T03:29:22;8.40;;;5.47;;
59854;SDS011;45732;52.850;6.896;2022-09-09T03:31:48;8.65;;;4.97;;
59854;SDS011;45732;52.850;6.896;2022-09-09T03:34:13;8.63;;;4.50;;
59854;SDS011;45732;52.850;6.896;2022-09-09T03:36:39;8.90;;;4.78;;
59854;SDS011;45732;52.850;6.896;2022-09-09T03:39:06;7.10;;;4.20;;
59854;SDS011;45732;52.850;6.896;2022-09-09T03:41:32;6.38;;;3.72;;
59854;SDS011;45732;52.850;6.896;2022-09-09T03:43:59;7.57;;;4.00;;
59854;SDS011;45732;52.850;6.896;2022-09-09T03:46:25;6.72;;;3.50;;
59854;SDS011;45732;52.850;6.896;2022-09-09T03:48:51;7.43;;;3.17;;
59854;SDS011;45732;52.850;6.896;2022-09-09T03:51:19;4.97;;;2.30;;
59854;SDS011;45732;52.850;6.896;2022-09-09T03:53:46;4.57;;;2.17;;
59854;SDS011;45732;52.850;6.896;2022-09-09T03:56:12;3.38;;;1.98;;
59854;SDS011;45732;52.850;6.896;2022-09-09T03:58:38;6.28;;;2.25;;
59854;SDS011;45732;52.850;6.896;2022-09-09T04:01:05;6.03;;;2.30;;
59854;SDS011;45732;52.850;6.896;2022-09-09T04:03:35;5.65;;;2.53;;
59854;SDS011;45732;52.850;6.896;2022-09-09T04:06:03;7.38;;;3.10;;
59854;SDS011;45732;52.850;6.896;2022-09-09T04:08:30;7.70;;;3.90;;
59854;SDS011;45732;52.850;6.896;2022-09-09T04:11:00;6.82;;;4.15;;
59854;SDS011;45732;52.850;6.896;2022-09-09T04:13:30;7.78;;;4.68;;
59854;SDS011;45732;52.850;6.896;2022-09-09T04:15:57;7.40;;;4.50;;
59854;SDS011;45732;52.850;6.896;2022-09-09T04:18:24;9.73;;;5.53;;
59854;SDS011;45732;52.850;6.896;2022-09-09T04:20:51;11.13;;;6.03;;
59854;SDS011;45732;52.850;6.896;2022-09-09T04:23:18;11.50;;;6.18;;
59854;SDS011;45732;52.850;6.896;2022-09-09T04:25:45;9.73;;;6.32;;
59854;SDS011;45732;52.850;6.896;2022-09-09T04:28:12;9.25;;;6.63;;
59854;SDS011;45732;52.850;6.896;2022-09-09T04:30:39;12.02;;;7.22;;
59854;SDS011;45732;52.850;6.896;2022-09-09T04:33:05;10.10;;;6.80;;
59854;SDS011;45732;52.850;6.896;2022-09-09T04:35:31;9.82;;;6.65;;
59854;SDS011;45732;52.850;6.896;2022-09-09T04:37:58;11.48;;;7.40;;
59854;SDS011;45732;52.850;6.896;2022-09-09T04:40:23;10.57;;;6.55;;
59854;SDS011;45732;52.850;6.896;2022-09-09T04:42:50;11.18;;;7.57;;
59854;SDS011;45732;52.850;6.896;2022-09-09T04:45:16;13.93;;;7.60;;
59854;SDS011;45732;52.850;6.896;2022-09-09T04:47:43;12.45;;;7.95;;
59854;SDS011;45732;52.850;6.896;2022-09-09T04:50:09;10.07;;;6.72;;
59854;SDS011;45732;52.850;6.896;2022-09-09T04:52:35;11.13;;;7.53;;
59854;SDS011;45732;52.850;6.896;2022-09-09T04:55:01;11.50;;;7.28;;
59854;SDS011;45732;52.850;6.896;2022-09-09T04:57:27;10.82;;;6.95;;
59854;SDS011;45732;52.850;6.896;2022-09-09T04:59:53;9.63;;;7.03;;
59854;SDS011;45732;52.850;6.896;2022-09-09T05:02:19;10.45;;;7.40;;
59854;SDS011;45732;52.850;6.896;2022-09-09T05:04:45;10.73;;;6.30;;
59854;SDS011;45732;52.850;6.896;2022-09-09T05:07:11;11.90;;;7.88;;
59854;SDS011;45732;52.850;6.896;2022-09-09T05:09:36;10.30;;;7.07;;
59854;SDS011;45732;52.850;6.896;2022-09-09T05:12:02;10.48;;;6.95;;
59854;SDS011;45732;52.850;6.896;2022-09-09T05:14:28;8.90;;;6.43;;
59854;SDS011;45732;52.850;6.896;2022-09-09T05:16:55;11.00;;;6.47;;
59854;SDS011;45732;52.850;6.896;2022-09-09T05:19:21;10.02;;;6.00;;
59854;SDS011;45732;52.850;6.896;2022-09-09T05:21:47;7.68;;;5.88;;
59854;SDS011;45732;52.850;6.896;2022-09-09T05:24:12;10.85;;;6.55;;
59854;SDS011;45732;52.850;6.896;2022-09-09T05:26:38;11.02;;;6.93;;
59854;SDS011;45732;52.850;6.896;2022-09-09T05:29:04;14.88;;;6.85;;
59854;SDS011;45732;52.850;6.896;2022-09-09T05:31:31;11.13;;;6.22;;
59854;SDS011;45732;52.850;6.896;2022-09-09T05:33:57;10.35;;;6.78;;
59854;SDS011;45732;52.850;6.896;2022-09-09T05:36:24;11.95;;;9.38;;
59854;SDS011;45732;52.850;6.896;2022-09-09T05:38:50;9.88;;;6.50;;
59854;SDS011;45732;52.850;6.896;2022-09-09T05:41:16;9.32;;;6.43;;
59854;SDS011;45732;52.850;6.896;2022-09-09T05:43:42;11.10;;;6.60;;
59854;SDS011;45732;52.850;6.896;2022-09-09T05:46:13;9.80;;;6.22;;
59854;SDS011;45732;52.850;6.896;2022-09-09T05:48:44;9.40;;;7.13;;
59854;SDS011;45732;52.850;6.896;2022-09-09T05:51:16;9.25;;;6.13;;
59854;SDS011;45732;52.850;6.896;2022-09-09T05:53:43;8.90;;;5.93;;
59854;SDS011;45732;52.850;6.896;2022-09-09T05:58:37;8.10;;;6.57;;
59854;SDS011;45732;52.850;6.896;2022-09-09T06:06:03;10.95;;;6.38;;
59854;SDS011;45732;52.850;6.896;2022-09-09T06:08:34;11.88;;;6.68;;
59854;SDS011;45732;52.850;6.896;2022-09-09T06:11:11;11.93;;;6.93;;
59854;SDS011;45732;52.850;6.896;2022-09-09T06:13:41;9.05;;;6.88;;
59854;SDS011;45732;52.850;6.896;2022-09-09T06:16:08;9.10;;;6.30;;
59854;SDS011;45732;52.850;6.896;2022-09-09T06:18:36;9.48;;;5.47;;
59854;SDS011;45732;52.850;6.896;2022-09-09T06:21:06;8.20;;;5.80;;
59854;SDS011;45732;52.850;6.896;2022-09-09T06:23:36;10.52;;;6.55;;
59854;SDS011;45732;52.850;6.896;2022-09-09T06:26:13;9.30;;;5.82;;
59854;SDS011;45732;52.850;6.896;2022-09-09T06:28:44;9.50;;;6.00;;
59854;SDS011;45732;52.850;6.896;2022-09-09T06:31:11;8.30;;;6.03;;
59854;SDS011;45732;52.850;6.896;2022-09-09T06:33:38;7.40;;;5.32;;
59854;SDS011;45732;52.850;6.896;2022-09-09T06:36:12;9.95;;;5.22;;
59854;SDS011;45732;52.850;6.896;2022-09-09T06:38:40;11.23;;;5.40;;
59854;SDS011;45732;52.850;6.896;2022-09-09T06:41:09;10.63;;;5.65;;
59854;SDS011;45732;52.850;6.896;2022-09-09T06:43:37;11.52;;;5.70;;
59854;SDS011;45732;52.850;6.896;2022-09-09T06:46:04;8.68;;;5.70;;
59854;SDS011;45732;52.850;6.896;2022-09-09T06:48:33;8.90;;;5.47;;
59854;SDS011;45732;52.850;6.896;2022-09-09T06:53:28;9.30;;;5.53;;
59854;SDS011;45732;52.850;6.896;2022-09-09T06:55:54;9.75;;;5.60;;
59854;SDS011;45732;52.850;6.896;2022-09-09T06:58:20;8.82;;;5.90;;
59854;SDS011;45732;52.850;6.896;2022-09-09T07:00:48;9.20;;;6.22;;
59854;SDS011;45732;52.850;6.896;2022-09-09T07:03:14;11.10;;;6.25;;
59854;SDS011;45732;52.850;6.896;2022-09-09T07:05:40;9.52;;;6.10;;
59854;SDS011;45732;52.850;6.896;2022-09-09T07:08:06;8.82;;;6.18;;
59854;SDS011;45732;52.850;6.896;2022-09-09T07:10:31;12.15;;;7.05;;
59854;SDS011;45732;52.850;6.896;2022-09-09T07:12:59;11.25;;;6.28;;
59854;SDS011;45732;52.850;6.896;2022-09-09T07:15:25;9.88;;;6.50;;
59854;SDS011;45732;52.850;6.896;2022-09-09T07:17:51;11.82;;;5.97;;
59854;SDS011;45732;52.850;6.896;2022-09-09T07:20:18;11.00;;;6.63;;
59854;SDS011;45732;52.850;6.896;2022-09-09T07:22:45;9.88;;;6.45;;
59854;SDS011;45732;52.850;6.896;2022-09-09T07:25:11;10.60;;;6.13;;
59854;SDS011;45732;52.850;6.896;2022-09-09T07:27:36;10.82;;;6.57;;
59854;SDS011;45732;52.850;6.896;2022-09-09T07:30:02;11.50;;;6.38;;
59854;SDS011;45732;52.850;6.896;2022-09-09T07:32:29;8.82;;;5.53;;
59854;SDS011;45732;52.850;6.896;2022-09-09T07:34:55;11.10;;;6.13;;
59854;SDS011;45732;52.850;6.896;2022-09-09T07:37:23;9.40;;;5.80;;
59854;SDS011;45732;52.850;6.896;2022-09-09T07:39:49;8.98;;;5.68;;
59854;SDS011;45732;52.850;6.896;2022-09-09T07:42:16;8.23;;;5.30;;
59854;SDS011;45732;52.850;6.896;2022-09-09T07:44:41;9.65;;;5.55;;
59854;SDS011;45732;52.850;6.896;2022-09-09T07:47:07;9.63;;;5.10;;
59854;SDS011;45732;52.850;6.896;2022-09-09T07:49:33;10.75;;;5.65;;
59854;SDS011;45732;52.850;6.896;2022-09-09T07:51:59;12.43;;;5.43;;
59854;SDS011;45732;52.850;6.896;2022-09-09T07:54:25;9.95;;;5.22;;
59854;SDS011;45732;52.850;6.896;2022-09-09T07:56:51;10.02;;;5.57;;
59854;SDS011;45732;52.850;6.896;2022-09-09T07:59:17;9.75;;;5.10;;
59854;SDS011;45732;52.850;6.896;2022-09-09T08:01:47;11.18;;;5.60;;
59854;SDS011;45732;52.850;6.896;2022-09-09T08:04:19;9.60;;;5.32;;
59854;SDS011;45732;52.850;6.896;2022-09-09T08:06:52;10.27;;;5.55;;
59854;SDS011;45732;52.850;6.896;2022-09-09T08:09:22;10.32;;;5.57;;
59854;SDS011;45732;52.850;6.896;2022-09-09T08:11:53;11.00;;;5.38;;
59854;SDS011;45732;52.850;6.896;2022-09-09T08:14:21;10.18;;;5.93;;
59854;SDS011;45732;52.850;6.896;2022-09-09T08:16:48;11.27;;;6.45;;
59854;SDS011;45732;52.850;6.896;2022-09-09T08:19:15;11.05;;;6.15;;
59854;SDS011;45732;52.850;6.896;2022-09-09T08:21:41;11.43;;;6.57;;
59854;SDS011;45732;52.850;6.896;2022-09-09T08:24:08;9.95;;;6.57;;
59854;SDS011;45732;52.850;6.896;2022-09-09T08:26:41;10.38;;;5.97;;
59854;SDS011;45732;52.850;6.896;2022-09-09T08:29:08;9.55;;;6.20;;
59854;SDS011;45732;52.850;6.896;2022-09-09T08:31:36;10.73;;;5.90;;
59854;SDS011;45732;52.850;6.896;2022-09-09T08:34:05;9.20;;;5.40;;
59854;SDS011;45732;52.850;6.896;2022-09-09T08:36:36;10.45;;;5.63;;
59854;SDS011;45732;52.850;6.896;2022-09-09T08:39:07;11.32;;;5.53;;
59854;SDS011;45732;52.850;6.896;2022-09-09T08:44:07;9.93;;;5.13;;
59854;SDS011;45732;52.850;6.896;2022-09-09T08:52:22;10.02;;;5.32;;
59854;SDS011;45732;52.850;6.896;2022-09-09T08:54:55;9.20;;;4.70;;
59854;SDS011;45732;52.850;6.896;2022-09-09T08:57:27;10.48;;;4.68;;
59854;SDS011;45732;52.850;6.896;2022-09-09T08:59:56;10.32;;;4.40;;
59854;SDS011;45732;52.850;6.896;2022-09-09T09:03:25;11.63;;;4.72;;
59854;SDS011;45732;52.850;6.896;2022-09-09T09:05:31;11.93;;;4.35;;
59854;SDS011;45732;52.850;6.896;2022-09-09T09:10:52;8.43;;;4.05;;
59854;SDS011;45732;52.850;6.896;2022-09-09T09:16:38;9.88;;;3.67;;
59854;SDS011;45732;52.850;6.896;2022-09-09T09:19:14;9.07;;;3.90;;
59854;SDS011;45732;52.850;6.896;2022-09-09T09:24:15;10.48;;;3.60;;
59854;SDS011;45732;52.850;6.896;2022-09-09T09:26:44;12.90;;;3.85;;
59854;SDS011;45732;52.850;6.896;2022-09-09T09:29:11;11.60;;;3.95;;
59854;SDS011;45732;52.850;6.896;2022-09-09T09:31:43;8.60;;;3.50;;
59854;SDS011;45732;52.850;6.896;2022-09-09T09:34:13;10.90;;;3.60;;
59854;SDS011;45732;52.850;6.896;2022-09-09T09:36:40;11.93;;;4.05;;
59854;SDS011;45732;52.850;6.896;2022-09-09T09:39:27;9.30;;;3.55;;
59854;SDS011;45732;52.850;6.896;2022-09-09T09:42:34;12.02;;;3.75;;
59854;SDS011;45732;52.850;6.896;2022-09-09T09:44:53;11.70;;;3.50;;
59854;SDS011;45732;52.850;6.896;2022-09-09T09:47:20;9.27;;;3.40;;
59854;SDS011;45732;52.850;6.896;2022-09-09T09:49:53;8.80;;;3.17;;
59854;SDS011;45732;52.850;6.896;2022-09-09T09:52:28;9.48;;;3.30;;
59854;SDS011;45732;52.850;6.896;2022-09-09T09:54:56;11.07;;;3.15;;
59854;SDS011;45732;52.850;6.896;2022-09-09T09:57:25;11.10;;;3.05;;
59854;SDS011;45732;52.850;6.896;2022-09-09T10:00:04;8.30;;;2.70;;
59854;SDS011;45732;52.850;6.896;2022-09-09T10:02:37;9.85;;;2.75;;
59854;SDS011;45732;52.850;6.896;2022-09-09T10:05:25;10.13;;;2.78;;
59854;SDS011;45732;52.850;6.896;2022-09-09T10:08:01;8.88;;;2.30;;
59854;SDS011;45732;52.850;6.896;2022-09-09T10:18:36;14.45;;;2.67;;
59854;SDS011;45732;52.850;6.896;2022-09-09T10:29:59;7.95;;;2.10;;
59854;SDS011;45732;52.850;6.896;2022-09-09T10:35:12;7.75;;;2.28;;
59854;SDS011;45732;52.850;6.896;2022-09-09T10:43:07;10.98;;;2.35;;
59854;SDS011;45732;52.850;6.896;2022-09-09T10:45:37;7.10;;;2.10;;
59854;SDS011;45732;52.850;6.896;2022-09-09T10:48:20;9.77;;;2.30;;
59854;SDS011;45732;52.850;6.896;2022-09-09T10:50:53;9.98;;;2.17;;
59854;SDS011;45732;52.850;6.896;2022-09-09T10:56:02;8.55;;;2.20;;
59854;SDS011;45732;52.850;6.896;2022-09-09T10:58:36;8.05;;;1.70;;
59854;SDS011;45732;52.850;6.896;2022-09-09T11:01:11;12.45;;;2.40;;
59854;SDS011;45732;52.850;6.896;2022-09-09T11:03:47;9.55;;;2.35;;
59854;SDS011;45732;52.850;6.896;2022-09-09T11:06:22;8.63;;;2.25;;
59854;SDS011;45732;52.850;6.896;2022-09-09T11:08:54;9.90;;;2.30;;
59854;SDS011;45732;52.850;6.896;2022-09-09T11:17:15;7.95;;;1.90;;
59854;SDS011;45732;52.850;6.896;2022-09-09T11:19:44;5.60;;;1.52;;
59854;SDS011;45732;52.850;6.896;2022-09-09T11:30:22;9.50;;;1.90;;
59854;SDS011;45732;52.850;6.896;2022-09-09T11:41:35;8.50;;;1.40;;
59854;SDS011;45732;52.850;6.896;2022-09-09T11:44:09;5.35;;;1.73;;
59854;SDS011;45732;52.850;6.896;2022-09-09T11:46:44;8.57;;;1.83;;
59854;SDS011;45732;52.850;6.896;2022-09-09T11:49:26;7.80;;;1.60;;
59854;SDS011;45732;52.850;6.896;2022-09-09T11:55:08;6.25;;;1.70;;
59854;SDS011;45732;52.850;6.896;2022-09-09T11:57:37;5.55;;;1.40;;
59854;SDS011;45732;52.850;6.896;2022-09-09T12:00:04;7.38;;;1.55;;
59854;SDS011;45732;52.850;6.896;2022-09-09T12:02:31;6.82;;;1.35;;
59854;SDS011;45732;52.850;6.896;2022-09-09T12:10:20;5.80;;;1.63;;
59854;SDS011;45732;52.850;6.896;2022-09-09T12:12:52;7.20;;;1.80;;
59854;SDS011;45732;52.850;6.896;2022-09-09T12:17:51;6.25;;;1.58;;
59854;SDS011;45732;52.850;6.896;2022-09-09T12:20:31;9.82;;;2.10;;
59854;SDS011;45732;52.850;6.896;2022-09-09T12:28:13;7.82;;;1.63;;
59854;SDS011;45732;52.850;6.896;2022-09-09T12:30:48;7.28;;;1.60;;
59854;SDS011;45732;52.850;6.896;2022-09-09T12:33:17;7.60;;;1.55;;
59854;SDS011;45732;52.850;6.896;2022-09-09T12:35:44;4.65;;;1.20;;
59854;SDS011;45732;52.850;6.896;2022-09-09T12:38:17;5.03;;;1.33;;
59854;SDS011;45732;52.850;6.896;2022-09-09T12:40:57;6.82;;;1.42;;
59854;SDS011;45732;52.850;6.896;2022-09-09T12:43:24;5.78;;;1.50;;
59854;SDS011;45732;52.850;6.896;2022-09-09T12:45:51;7.40;;;1.63;;
59854;SDS011;45732;52.850;6.896;2022-09-09T12:48:25;6.53;;;1.43;;
59854;SDS011;45732;52.850;6.896;2022-09-09T12:50:56;6.85;;;1.40;;
59854;SDS011;45732;52.850;6.896;2022-09-09T12:53:26;5.85;;;1.48;;
59854;SDS011;45732;52.850;6.896;2022-09-09T12:55:58;6.30;;;1.70;;
59854;SDS011;45732;52.850;6.896;2022-09-09T12:58:27;8.07;;;1.52;;
59854;SDS011;45732;52.850;6.896;2022-09-09T13:00:58;6.47;;;1.55;;
59854;SDS011;45732;52.850;6.896;2022-09-09T13:03:25;7.40;;;1.65;;
59854;SDS011;45732;52.850;6.896;2022-09-09T13:05:52;7.95;;;1.95;;
59854;SDS011;45732;52.850;6.896;2022-09-09T13:08:19;6.00;;;1.77;;
59854;SDS011;45732;52.850;6.896;2022-09-09T13:10:58;7.75;;;1.70;;
59854;SDS011;45732;52.850;6.896;2022-09-09T13:15:56;7.95;;;1.88;;
59854;SDS011;45732;52.850;6.896;2022-09-09T13:18:34;3.65;;;1.10;;
59854;SDS011;45732;52.850;6.896;2022-09-09T13:21:03;7.45;;;1.50;;
59854;SDS011;45732;52.850;6.896;2022-09-09T13:23:30;6.00;;;1.30;;
59854;SDS011;45732;52.850;6.896;2022-09-09T13:26:01;6.53;;;1.67;;
59854;SDS011;45732;52.850;6.896;2022-09-09T13:28:31;5.18;;;1.60;;
59854;SDS011;45732;52.850;6.896;2022-09-09T13:31:05;9.82;;;1.75;;
59854;SDS011;45732;52.850;6.896;2022-09-09T13:33:44;9.55;;;2.05;;
59854;SDS011;45732;52.850;6.896;2022-09-09T13:36:10;14.35;;;2.58;;
59854;SDS011;45732;52.850;6.896;2022-09-09T13:41:35;9.32;;;2.35;;
59854;SDS011;45732;52.850;6.896;2022-09-09T13:44:14;8.75;;;1.67;;
59854;SDS011;45732;52.850;6.896;2022-09-09T13:46:58;7.20;;;1.70;;
59854;SDS011;45732;52.850;6.896;2022-09-09T13:49:45;6.13;;;1.50;;
59854;SDS011;45732;52.850;6.896;2022-09-09T13:52:12;7.10;;;1.58;;
59854;SDS011;45732;52.850;6.896;2022-09-09T13:54:48;5.05;;;1.30;;
59854;SDS011;45732;52.850;6.896;2022-09-09T13:57:24;7.90;;;1.60;;
59854;SDS011;45732;52.850;6.896;2022-09-09T13:59:50;5.47;;;1.50;;
59854;SDS011;45732;52.850;6.896;2022-09-09T14:02:17;7.05;;;1.73;;
59854;SDS011;45732;52.850;6.896;2022-09-09T14:04:44;4.70;;;1.35;;
59854;SDS011;45732;52.850;6.896;2022-09-09T14:07:13;7.00;;;1.90;;
59854;SDS011;45732;52.850;6.896;2022-09-09T14:09:41;6.53;;;1.98;;
59854;SDS011;45732;52.850;6.896;2022-09-09T14:12:10;5.88;;;1.65;;
59854;SDS011;45732;52.850;6.896;2022-09-09T14:14:37;8.20;;;1.60;;
59854;SDS011;45732;52.850;6.896;2022-09-09T14:17:03;6.47;;;1.65;;
59854;SDS011;45732;52.850;6.896;2022-09-09T14:19:29;5.10;;;1.30;;
59854;SDS011;45732;52.850;6.896;2022-09-09T14:21:56;5.95;;;1.85;;
59854;SDS011;45732;52.850;6.896;2022-09-09T14:24:22;7.07;;;1.33;;
59854;SDS011;45732;52.850;6.896;2022-09-09T14:26:48;4.25;;;1.30;;
59854;SDS011;45732;52.850;6.896;2022-09-09T14:29:14;5.70;;;0.88;;
59854;SDS011;45732;52.850;6.896;2022-09-09T14:31:39;3.47;;;0.93;;
59854;SDS011;45732;52.850;6.896;2022-09-09T14:34:05;2.88;;;0.70;;
59854;SDS011;45732;52.850;6.896;2022-09-09T14:36:31;2.47;;;0.60;;
59854;SDS011;45732;52.850;6.896;2022-09-09T14:38:57;2.65;;;0.70;;
59854;SDS011;45732;52.850;6.896;2022-09-09T14:41:23;3.72;;;0.60;;
59854;SDS011;45732;52.850;6.896;2022-09-09T14:43:50;1.73;;;0.47;;
59854;SDS011;45732;52.850;6.896;2022-09-09T14:46:17;1.85;;;0.43;;
59854;SDS011;45732;52.850;6.896;2022-09-09T14:48:44;1.85;;;0.50;;
59854;SDS011;45732;52.850;6.896;2022-09-09T14:51:17;2.85;;;0.60;;
59854;SDS011;45732;52.850;6.896;2022-09-09T14:53:48;2.42;;;0.60;;
59854;SDS011;45732;52.850;6.896;2022-09-09T14:56:18;2.67;;;0.50;;
59854;SDS011;45732;52.850;6.896;2022-09-09T14:58:46;2.92;;;0.55;;
59854;SDS011;45732;52.850;6.896;2022-09-09T15:01:13;5.75;;;0.70;;
59854;SDS011;45732;52.850;6.896;2022-09-09T15:03:41;2.45;;;0.90;;
59854;SDS011;45732;52.850;6.896;2022-09-09T15:06:13;4.35;;;0.98;;
59854;SDS011;45732;52.850;6.896;2022-09-09T15:08:43;4.20;;;1.13;;
59854;SDS011;45732;52.850;6.896;2022-09-09T15:11:10;3.78;;;1.23;;
59854;SDS011;45732;52.850;6.896;2022-09-09T15:13:37;3.95;;;1.40;;
59854;SDS011;45732;52.850;6.896;2022-09-09T15:16:12;4.90;;;1.50;;
59854;SDS011;45732;52.850;6.896;2022-09-09T15:18:39;6.65;;;1.42;;
59854;SDS011;45732;52.850;6.896;2022-09-09T15:21:11;3.67;;;1.40;;
59854;SDS011;45732;52.850;6.896;2022-09-09T15:23:38;3.00;;;1.10;;
59854;SDS011;45732;52.850;6.896;2022-09-09T15:26:04;5.10;;;1.40;;
59854;SDS011;45732;52.850;6.896;2022-09-09T15:28:31;5.28;;;1.55;;
59854;SDS011;45732;52.850;6.896;2022-09-09T15:31:04;4.15;;;1.30;;
59854;SDS011;45732;52.850;6.896;2022-09-09T15:33:51;5.03;;;1.20;;
59854;SDS011;45732;52.850;6.896;2022-09-09T15:36:23;4.95;;;1.10;;
59854;SDS011;45732;52.850;6.896;2022-09-09T15:38:50;5.55;;;1.48;;
59854;SDS011;45732;52.850;6.896;2022-09-09T15:41:17;5.00;;;1.30;;
59854;SDS011;45732;52.850;6.896;2022-09-09T15:43:44;4.60;;;1.20;;
59854;SDS011;45732;52.850;6.896;2022-09-09T15:48:49;5.35;;;1.20;;
59854;SDS011;45732;52.850;6.896;2022-09-09T15:51:16;5.00;;;1.45;;
59854;SDS011;45732;52.850;6.896;2022-09-09T15:53:42;4.32;;;1.30;;
59854;SDS011;45732;52.850;6.896;2022-09-09T15:56:08;4.57;;;1.50;;
59854;SDS011;45732;52.850;6.896;2022-09-09T15:58:34;3.83;;;1.23;;
59854;SDS011;45732;52.850;6.896;2022-09-09T16:01:04;4.07;;;1.48;;
59854;SDS011;45732;52.850;6.896;2022-09-09T16:03:35;3.15;;;1.30;;
59854;SDS011;45732;52.850;6.896;2022-09-09T16:06:03;3.65;;;1.23;;
59854;SDS011;45732;52.850;6.896;2022-09-09T16:08:33;3.83;;;1.20;;
59854;SDS011;45732;52.850;6.896;2022-09-09T16:13:37;3.75;;;1.35;;
59854;SDS011;45732;52.850;6.896;2022-09-09T16:16:07;4.60;;;1.33;;
59854;SDS011;45732;52.850;6.896;2022-09-09T16:18:40;5.22;;;1.40;;
59854;SDS011;45732;52.850;6.896;2022-09-09T16:21:08;5.43;;;1.52;;
59854;SDS011;45732;52.850;6.896;2022-09-09T16:23:37;4.05;;;1.30;;
59854;SDS011;45732;52.850;6.896;2022-09-09T16:26:04;5.18;;;1.50;;
59854;SDS011;45732;52.850;6.896;2022-09-09T16:28:30;4.75;;;1.17;;
59854;SDS011;45732;52.850;6.896;2022-09-09T16:30:56;5.47;;;1.60;;
59854;SDS011;45732;52.850;6.896;2022-09-09T16:33:23;3.35;;;1.25;;
59854;SDS011;45732;52.850;6.896;2022-09-09T16:35:50;4.72;;;1.60;;
59854;SDS011;45732;52.850;6.896;2022-09-09T16:38:16;5.95;;;1.58;;
59854;SDS011;45732;52.850;6.896;2022-09-09T16:40:42;7.32;;;1.70;;
59854;SDS011;45732;52.850;6.896;2022-09-09T16:43:08;4.38;;;1.40;;
59854;SDS011;45732;52.850;6.896;2022-09-09T16:45:43;5.20;;;1.50;;
59854;SDS011;45732;52.850;6.896;2022-09-09T16:48:10;5.28;;;1.60;;
59854;SDS011;45732;52.850;6.896;2022-09-09T16:50:36;5.80;;;1.75;;
59854;SDS011;45732;52.850;6.896;2022-09-09T16:53:04;4.47;;;1.45;;
59854;SDS011;45732;52.850;6.896;2022-09-09T16:55:37;5.57;;;1.58;;
59854;SDS011;45732;52.850;6.896;2022-09-09T16:58:04;8.73;;;1.88;;
59854;SDS011;45732;52.850;6.896;2022-09-09T17:00:30;7.40;;;1.38;;
59854;SDS011;45732;52.850;6.896;2022-09-09T17:02:55;4.90;;;1.70;;
59854;SDS011;45732;52.850;6.896;2022-09-09T17:05:21;4.25;;;1.40;;
59854;SDS011;45732;52.850;6.896;2022-09-09T17:07:48;4.43;;;1.50;;
59854;SDS011;45732;52.850;6.896;2022-09-09T17:10:13;6.03;;;1.92;;
59854;SDS011;45732;52.850;6.896;2022-09-09T17:12:39;6.00;;;1.33;;
59854;SDS011;45732;52.850;6.896;2022-09-09T17:15:06;4.45;;;1.55;;
59854;SDS011;45732;52.850;6.896;2022-09-09T17:17:32;4.80;;;1.65;;
59854;SDS011;45732;52.850;6.896;2022-09-09T17:19:58;4.20;;;1.58;;
59854;SDS011;45732;52.850;6.896;2022-09-09T17:22:24;4.85;;;1.65;;
59854;SDS011;45732;52.850;6.896;2022-09-09T17:24:51;6.57;;;1.90;;
59854;SDS011;45732;52.850;6.896;2022-09-09T17:27:16;4.93;;;1.70;;
59854;SDS011;45732;52.850;6.896;2022-09-09T17:29:42;5.00;;;1.70;;
59854;SDS011;45732;52.850;6.896;2022-09-09T17:32:08;4.95;;;1.80;;
59854;SDS011;45732;52.850;6.896;2022-09-09T17:34:34;4.05;;;1.70;;
59854;SDS011;45732;52.850;6.896;2022-09-09T17:37:00;7.30;;;1.90;;
59854;SDS011;45732;52.850;6.896;2022-09-09T17:39:25;4.55;;;1.52;;